»·PEaware :: UAL1399 KPSP-KSNA

UAL1399 :: KPSP-KSNA

FLIGHT INFORMATION

Flight Status: Arrived
Operator:
United Airlines
More flights by this operator :: More flights under this callsign
Pilot: David C. (16084)
Aircraft: SAAB 340
(SF34)
More flights by this aircraft type
Origin: KPSP Palm Springs Intl
United States
Destination: KSNA John Wayne-Orange Co
United States
More flights between these airports :: More routes between these airports
Route: CATH1 PSP V388 DEWAY HDF KAYOH7
File this flight plan on PilotEdge
Remarks:
Altitude:
(Current/Filed)
12,000ft
Speed:
(Current/Filed)
283kts
Departed: 11-Jul-18 06:14 PM
Arrived: 11-Jul-18 06:45 PM
Distance/Time
Traveled:
68nm/0:31
Distance/Time
To Go:
Arrived

Flight Plot

Page will automatically refresh every two minutes.


Map Options




Map Legend


Flown Route
Filed Route
Departure Airport
Arrival Airport
Navaid (VOR, NDB)
Fix

Horizontal Profiles

Position Reports

Time Latitude Longitude Heading Altitude Ground
Speed
11-Jul-18 17:51 33.821535 -116.506504 262 482ft 0kts
11-Jul-18 17:52 33.821535 -116.506504 262 482ft 0kts
11-Jul-18 17:53 33.821535 -116.506504 262 482ft 0kts
11-Jul-18 17:54 33.821535 -116.506504 262 482ft 0kts
11-Jul-18 17:55 33.821535 -116.506504 262 482ft 0kts
11-Jul-18 17:56 33.821535 -116.506504 262 482ft 0kts
11-Jul-18 17:57 33.821535 -116.506504 262 482ft 0kts
11-Jul-18 17:58 33.821535 -116.506504 262 482ft 0kts
11-Jul-18 17:59 33.821535 -116.506504 262 482ft 0kts
11-Jul-18 18:00 33.821535 -116.506504 262 482ft 0kts
11-Jul-18 18:01 33.821535 -116.506504 262 482ft 0kts
11-Jul-18 18:02 33.821535 -116.506504 262 482ft 0kts
11-Jul-18 18:03 33.821535 -116.506504 262 482ft 0kts
11-Jul-18 18:04 33.821535 -116.506504 262 482ft 0kts
11-Jul-18 18:05 33.821535 -116.506504 262 482ft 0kts
11-Jul-18 18:06 33.821535 -116.506504 262 482ft 0kts
11-Jul-18 18:07 33.821535 -116.506505 262 482ft 0kts
11-Jul-18 18:08 33.821807 -116.506350 55 482ft 0kts
11-Jul-18 18:09 33.821807 -116.506350 55 482ft 0kts
11-Jul-18 18:10 33.822431 -116.503249 141 482ft 17kts
11-Jul-18 18:11 33.818494 -116.499013 86 482ft 0kts
11-Jul-18 18:12 33.818494 -116.499013 86 482ft 0kts
11-Jul-18 18:13 33.818494 -116.499013 86 482ft 0kts
11-Jul-18 18:14 33.819058 -116.498234 332 482ft 11kts
11-Jul-18 18:15 33.845433 -116.523618 320 1227ft 196kts
11-Jul-18 18:16 33.888399 -116.567222 325 3812ft 203kts
11-Jul-18 18:17 33.915817 -116.535209 122 5768ft 194kts
11-Jul-18 18:18 33.876691 -116.493281 119 7647ft 194kts
11-Jul-18 18:19 33.856905 -116.433620 89 9450ft 196kts
11-Jul-18 18:20 33.846424 -116.370941 117 11034ft 199kts
11-Jul-18 18:21 33.813970 -116.317337 167 11974ft 224kts
11-Jul-18 18:22 33.785680 -116.373758 299 11976ft 266kts
11-Jul-18 18:23 33.835049 -116.442440 311 12000ft 276kts
11-Jul-18 18:24 33.886298 -116.511591 301 11985ft 279kts
11-Jul-18 18:25 33.912835 -116.598897 286 12000ft 279kts
11-Jul-18 18:26 33.934722 -116.685353 285 12035ft 277kts
11-Jul-18 18:27 33.935001 -116.773588 245 12055ft 274kts
11-Jul-18 18:28 33.903706 -116.856292 243 12080ft 274kts
11-Jul-18 18:29 33.871645 -116.939299 243 11994ft 279kts
11-Jul-18 18:30 33.838931 -117.023778 243 11981ft 279kts
11-Jul-18 18:31 33.806490 -117.106998 244 11669ft 273kts
11-Jul-18 18:32 33.777090 -117.187408 266 10295ft 259kts
11-Jul-18 18:33 33.777070 -117.272115 272 9036ft 259kts
11-Jul-18 18:34 33.777885 -117.357008 272 8008ft 249kts
11-Jul-18 18:35 33.778827 -117.437085 272 7992ft 243kts
11-Jul-18 18:36 33.779574 -117.518769 273 7970ft 236kts
11-Jul-18 18:37 33.780211 -117.593900 273 6867ft 215kts
11-Jul-18 18:38 33.795137 -117.652760 311 5484ft 197kts
11-Jul-18 18:39 33.829959 -117.695438 312 4972ft 171kts
11-Jul-18 18:40 33.866120 -117.738284 301 4970ft 197kts
11-Jul-18 18:41 33.839156 -117.783390 210 4069ft 174kts
11-Jul-18 18:42 33.795130 -117.795265 184 3081ft 167kts
11-Jul-18 18:43 33.756675 -117.817061 208 1702ft 150kts
11-Jul-18 18:44 33.723062 -117.838716 207 1032ft 127kts
11-Jul-18 18:45 33.692080 -117.858393 206 342ft 120kts
11-Jul-18 18:46 33.672471 -117.870851 207 61ft 22kts
11-Jul-18 18:47 33.669165 -117.871566 115 61ft 0kts
11-Jul-18 18:48 33.669130 -117.871471 110 61ft 6kts
11-Jul-18 18:49 33.674414 -117.866287 28 61ft 32kts
11-Jul-18 18:50 33.676472 -117.864185 119 61ft 0kts

Navigation Log

Ident Type
Flight plan parsing failed, navigation log unavailable